sensor_id;sensor_type;location;lat;lon;timestamp;pressure;altitude;pressure_sealevel;temperature;humidity
22755;BME280;11544;42.020;23.094;2022-09-29T00:00:50;96280.53;;;17.01;80.33
22755;BME280;11544;42.020;23.094;2022-09-29T00:03:17;96275.38;;;17.11;79.78
22755;BME280;11544;42.020;23.094;2022-09-29T00:05:49;96272.84;;;16.98;80.33
22755;BME280;11544;42.020;23.094;2022-09-29T00:08:16;96265.09;;;17.19;79.78
22755;BME280;11544;42.020;23.094;2022-09-29T00:10:43;96273.09;;;17.06;79.59
22755;BME280;11544;42.020;23.094;2022-09-29T00:13:08;96268.31;;;17.11;80.04
22755;BME280;11544;42.020;23.094;2022-09-29T00:15:34;96262.81;;;17.03;80.63
22755;BME280;11544;42.020;23.094;2022-09-29T00:18:00;96265.34;;;17.16;79.87
22755;BME280;11544;42.020;23.094;2022-09-29T00:20:25;96260.50;;;16.87;81.13
22755;BME280;11544;42.020;23.094;2022-09-29T00:22:51;96263.88;;;16.89;82.60
22755;BME280;11544;42.020;23.094;2022-09-29T00:25:18;96265.66;;;17.00;81.31
22755;BME280;11544;42.020;23.094;2022-09-29T00:28:02;96272.72;;;16.64;83.88
22755;BME280;11544;42.020;23.094;2022-09-29T00:30:28;96273.59;;;16.76;86.66
22755;BME280;11544;42.020;23.094;2022-09-29T00:32:53;96283.97;;;16.66;88.09
22755;BME280;11544;42.020;23.094;2022-09-29T00:35:19;96276.94;;;16.43;88.83
22755;BME280;11544;42.020;23.094;2022-09-29T00:37:45;96283.31;;;16.27;90.34
22755;BME280;11544;42.020;23.094;2022-09-29T00:40:11;96287.63;;;16.52;90.56
22755;BME280;11544;42.020;23.094;2022-09-29T00:42:36;96289.78;;;16.23;91.66
22755;BME280;11544;42.020;23.094;2022-09-29T00:45:16;96297.31;;;16.52;92.08
22755;BME280;11544;42.020;23.094;2022-09-29T00:47:44;96295.13;;;16.46;90.83
22755;BME280;11544;42.020;23.094;2022-09-29T00:50:29;96285.13;;;16.86;87.23
22755;BME280;11544;42.020;23.094;2022-09-29T00:53:01;96285.88;;;16.64;87.29
22755;BME280;11544;42.020;23.094;2022-09-29T00:55:32;96285.97;;;16.63;87.66
22755;BME280;11544;42.020;23.094;2022-09-29T00:58:07;96290.34;;;16.75;87.29
22755;BME280;11544;42.020;23.094;2022-09-29T01:00:36;96290.28;;;16.88;85.37
22755;BME280;11544;42.020;23.094;2022-09-29T01:03:06;96293.66;;;16.90;84.69
22755;BME280;11544;42.020;23.094;2022-09-29T01:05:39;96288.66;;;16.74;85.72
22755;BME280;11544;42.020;23.094;2022-09-29T01:08:23;96292.31;;;16.84;85.18
22755;BME280;11544;42.020;23.094;2022-09-29T01:10:52;96280.28;;;17.04;83.68
22755;BME280;11544;42.020;23.094;2022-09-29T01:13:18;96281.38;;;16.78;83.38
22755;BME280;11544;42.020;23.094;2022-09-29T01:15:45;96284.22;;;16.75;84.93
22755;BME280;11544;42.020;23.094;2022-09-29T01:18:11;96287.59;;;16.77;84.33
22755;BME280;11544;42.020;23.094;2022-09-29T01:20:45;96297.22;;;16.65;84.47
22755;BME280;11544;42.020;23.094;2022-09-29T01:31:58;96309.78;;;16.85;83.88
22755;BME280;11544;42.020;23.094;2022-09-29T01:35:06;96306.13;;;16.75;83.82
22755;BME280;11544;42.020;23.094;2022-09-29T01:37:46;96313.03;;;16.65;83.82
22755;BME280;11544;42.020;23.094;2022-09-29T01:46:25;96311.06;;;16.07;87.66
22755;BME280;11544;42.020;23.094;2022-09-29T01:48:54;96314.66;;;16.30;87.25
22755;BME280;11544;42.020;23.094;2022-09-29T01:51:28;96323.56;;;16.17;87.56
22755;BME280;11544;42.020;23.094;2022-09-29T01:53:59;96314.66;;;16.06;88.00
22755;BME280;11544;42.020;23.094;2022-09-29T01:56:51;96324.84;;;16.11;87.64
22755;BME280;11544;42.020;23.094;2022-09-29T01:59:49;96327.06;;;16.04;87.58
22755;BME280;11544;42.020;23.094;2022-09-29T02:02:21;96318.28;;;15.80;89.02
22755;BME280;11544;42.020;23.094;2022-09-29T02:04:56;96323.47;;;16.05;87.78
22755;BME280;11544;42.020;23.094;2022-09-29T02:07:37;96316.25;;;15.96;87.90
22755;BME280;11544;42.020;23.094;2022-09-29T02:10:10;96326.09;;;16.05;87.07
22755;BME280;11544;42.020;23.094;2022-09-29T02:12:38;96333.97;;;16.05;86.95
22755;BME280;11544;42.020;23.094;2022-09-29T02:15:08;96334.72;;;16.07;87.00
22755;BME280;11544;42.020;23.094;2022-09-29T02:17:40;96334.91;;;16.17;86.01
22755;BME280;11544;42.020;23.094;2022-09-29T02:20:10;96340.31;;;16.27;85.76
22755;BME280;11544;42.020;23.094;2022-09-29T02:22:36;96335.38;;;16.35;83.80
22755;BME280;11544;42.020;23.094;2022-09-29T02:25:03;96341.94;;;16.17;83.77
22755;BME280;11544;42.020;23.094;2022-09-29T02:27:29;96346.69;;;16.12;85.12
22755;BME280;11544;42.020;23.094;2022-09-29T02:29:56;96352.63;;;15.90;86.71
22755;BME280;11544;42.020;23.094;2022-09-29T02:32:24;96352.03;;;15.73;87.63
22755;BME280;11544;42.020;23.094;2022-09-29T02:34:51;96345.59;;;15.77;88.74
22755;BME280;11544;42.020;23.094;2022-09-29T02:37:39;96345.09;;;15.72;89.34
22755;BME280;11544;42.020;23.094;2022-09-29T02:51:26;96341.19;;;15.91;87.57
22755;BME280;11544;42.020;23.094;2022-09-29T02:57:25;96342.78;;;16.17;87.31
22755;BME280;11544;42.020;23.094;2022-09-29T03:02:35;96354.78;;;16.08;86.58
22755;BME280;11544;42.020;23.094;2022-09-29T03:05:02;96343.19;;;16.24;84.66
22755;BME280;11544;42.020;23.094;2022-09-29T03:07:29;96344.19;;;16.58;83.44
22755;BME280;11544;42.020;23.094;2022-09-29T03:09:55;96336.03;;;16.50;82.08
22755;BME280;11544;42.020;23.094;2022-09-29T03:12:20;96345.41;;;16.54;82.15
22755;BME280;11544;42.020;23.094;2022-09-29T03:14:46;96351.72;;;16.51;82.89
22755;BME280;11544;42.020;23.094;2022-09-29T03:17:12;96346.72;;;16.60;82.39
22755;BME280;11544;42.020;23.094;2022-09-29T03:19:37;96349.44;;;16.47;82.81
22755;BME280;11544;42.020;23.094;2022-09-29T03:22:03;96353.88;;;16.34;83.68
22755;BME280;11544;42.020;23.094;2022-09-29T03:24:30;96351.31;;;16.45;84.71
22755;BME280;11544;42.020;23.094;2022-09-29T03:27:26;96361.03;;;15.95;87.10
22755;BME280;11544;42.020;23.094;2022-09-29T03:29:51;96364.41;;;15.84;89.76
22755;BME280;11544;42.020;23.094;2022-09-29T03:32:17;96377.13;;;15.90;91.85
22755;BME280;11544;42.020;23.094;2022-09-29T03:34:43;96387.13;;;15.72;92.30
22755;BME280;11544;42.020;23.094;2022-09-29T03:37:08;96385.03;;;15.90;92.19
22755;BME280;11544;42.020;23.094;2022-09-29T03:39:34;96386.47;;;15.56;93.48
22755;BME280;11544;42.020;23.094;2022-09-29T03:42:01;96397.28;;;15.38;95.95
22755;BME280;11544;42.020;23.094;2022-09-29T03:44:26;96394.09;;;15.20;97.94
22755;BME280;11544;42.020;23.094;2022-09-29T03:46:52;96382.69;;;15.60;97.97
22755;BME280;11544;42.020;23.094;2022-09-29T03:49:17;96379.97;;;15.87;97.01
22755;BME280;11544;42.020;23.094;2022-09-29T03:51:43;96380.19;;;15.71;96.22
22755;BME280;11544;42.020;23.094;2022-09-29T03:54:10;96375.88;;;15.70;97.63
22755;BME280;11544;42.020;23.094;2022-09-29T03:56:36;96388.97;;;15.32;98.84
22755;BME280;11544;42.020;23.094;2022-09-29T03:59:04;96385.81;;;15.27;100.00
22755;BME280;11544;42.020;23.094;2022-09-29T04:01:30;96382.56;;;15.23;100.00
22755;BME280;11544;42.020;23.094;2022-09-29T04:03:57;96364.09;;;15.63;100.00
22755;BME280;11544;42.020;23.094;2022-09-29T04:06:23;96361.59;;;15.74;99.88
22755;BME280;11544;42.020;23.094;2022-09-29T04:08:49;96364.41;;;15.58;100.00
22755;BME280;11544;42.020;23.094;2022-09-29T04:11:15;96366.91;;;15.47;99.81
22755;BME280;11544;42.020;23.094;2022-09-29T04:13:41;96357.47;;;15.32;100.00
22755;BME280;11544;42.020;23.094;2022-09-29T04:16:07;96339.59;;;15.75;100.00
22755;BME280;11544;42.020;23.094;2022-09-29T04:18:33;96317.56;;;16.15;96.81
22755;BME280;11544;42.020;23.094;2022-09-29T04:20:59;96321.34;;;16.11;93.81
22755;BME280;11544;42.020;23.094;2022-09-29T04:23:28;96332.47;;;15.52;97.69
22755;BME280;11544;42.020;23.094;2022-09-29T04:25:57;96355.16;;;15.53;100.00
22755;BME280;11544;42.020;23.094;2022-09-29T04:28:24;96357.66;;;15.54;100.00
22755;BME280;11544;42.020;23.094;2022-09-29T04:30:50;96370.81;;;15.41;100.00
22755;BME280;11544;42.020;23.094;2022-09-29T04:33:16;96366.63;;;15.26;100.00
22755;BME280;11544;42.020;23.094;2022-09-29T04:35:41;96366.88;;;15.09;100.00
22755;BME280;11544;42.020;23.094;2022-09-29T04:38:07;96372.38;;;14.78;100.00
22755;BME280;11544;42.020;23.094;2022-09-29T04:40:34;96383.16;;;14.74;100.00
22755;BME280;11544;42.020;23.094;2022-09-29T04:43:00;96373.78;;;14.97;100.00
22755;BME280;11544;42.020;23.094;2022-09-29T04:45:26;96390.38;;;14.97;100.00
22755;BME280;11544;42.020;23.094;2022-09-29T04:47:52;96396.09;;;15.17;100.00
22755;BME280;11544;42.020;23.094;2022-09-29T04:50:17;96403.06;;;15.31;100.00
22755;BME280;11544;42.020;23.094;2022-09-29T04:52:43;96396.91;;;15.04;100.00
22755;BME280;11544;42.020;23.094;2022-09-29T04:55:10;96409.00;;;14.80;100.00
22755;BME280;11544;42.020;23.094;2022-09-29T04:57:37;96404.56;;;14.68;100.00
22755;BME280;11544;42.020;23.094;2022-09-29T05:00:04;96402.28;;;15.16;100.00
22755;BME280;11544;42.020;23.094;2022-09-29T05:02:30;96407.91;;;16.50;100.00
22755;BME280;11544;42.020;23.094;2022-09-29T05:04:56;96397.19;;;14.87;100.00
22755;BME280;11544;42.020;23.094;2022-09-29T05:07:22;96385.03;;;15.90;100.00
22755;BME280;11544;42.020;23.094;2022-09-29T05:09:48;96373.50;;;16.17;100.00
22755;BME280;11544;42.020;23.094;2022-09-29T05:12:13;96366.94;;;15.60;100.00
22755;BME280;11544;42.020;23.094;2022-09-29T05:14:39;96364.53;;;15.57;100.00
22755;BME280;11544;42.020;23.094;2022-09-29T05:17:05;96371.03;;;15.38;100.00
22755;BME280;11544;42.020;23.094;2022-09-29T05:19:30;96361.50;;;15.76;100.00
22755;BME280;11544;42.020;23.094;2022-09-29T05:21:57;96349.25;;;16.00;100.00
22755;BME280;11544;42.020;23.094;2022-09-29T05:24:23;96356.19;;;16.38;96.77
22755;BME280;11544;42.020;23.094;2022-09-29T05:26:49;96358.53;;;16.54;93.87
22755;BME280;11544;42.020;23.094;2022-09-29T05:29:14;96370.41;;;16.60;92.78
22755;BME280;11544;42.020;23.094;2022-09-29T05:31:40;96369.34;;;16.62;92.48
22755;BME280;11544;42.020;23.094;2022-09-29T05:34:06;96370.84;;;16.78;94.35
22755;BME280;11544;42.020;23.094;2022-09-29T05:36:31;96359.41;;;17.94;89.51
22755;BME280;11544;42.020;23.094;2022-09-29T05:38:57;96363.69;;;17.73;85.72
22755;BME280;11544;42.020;23.094;2022-09-29T05:41:23;96361.09;;;17.26;87.66
22755;BME280;11544;42.020;23.094;2022-09-29T05:43:49;96363.78;;;18.50;84.43
22755;BME280;11544;42.020;23.094;2022-09-29T05:46:15;96362.69;;;18.96;78.68
22755;BME280;11544;42.020;23.094;2022-09-29T05:48:42;96353.94;;;19.17;78.18
22755;BME280;11544;42.020;23.094;2022-09-29T05:51:11;96346.38;;;19.54;75.70
22755;BME280;11544;42.020;23.094;2022-09-29T05:53:37;96363.19;;;18.90;76.36
22755;BME280;11544;42.020;23.094;2022-09-29T05:56:17;96361.56;;;18.99;75.96
22755;BME280;11544;42.020;23.094;2022-09-29T05:58:45;96362.72;;;18.41;77.83
22755;BME280;11544;42.020;23.094;2022-09-29T06:01:17;96379.59;;;17.49;82.28
22755;BME280;11544;42.020;23.094;2022-09-29T06:03:43;96371.34;;;18.44;80.85
22755;BME280;11544;42.020;23.094;2022-09-29T06:08:39;96380.91;;;17.54;82.26
22755;BME280;11544;42.020;23.094;2022-09-29T06:11:09;96385.78;;;16.90;85.38
22755;BME280;11544;42.020;23.094;2022-09-29T06:13:40;96379.72;;;17.47;86.17
22755;BME280;11544;42.020;23.094;2022-09-29T06:16:07;96368.88;;;17.86;84.41
22755;BME280;11544;42.020;23.094;2022-09-29T06:18:33;96369.34;;;18.13;81.79
22755;BME280;11544;42.020;23.094;2022-09-29T06:21:04;96361.41;;;18.36;80.00
22755;BME280;11544;42.020;23.094;2022-09-29T06:23:30;96367.56;;;18.03;81.47
22755;BME280;11544;42.020;23.094;2022-09-29T06:26:00;96367.88;;;18.75;78.33
22755;BME280;11544;42.020;23.094;2022-09-29T06:28:30;96368.53;;;18.56;77.63
22755;BME280;11544;42.020;23.094;2022-09-29T06:31:00;96369.03;;;18.61;78.28
22755;BME280;11544;42.020;23.094;2022-09-29T06:33:26;96376.88;;;19.16;77.72
22755;BME280;11544;42.020;23.094;2022-09-29T06:35:52;96367.28;;;19.78;75.57
22755;BME280;11544;42.020;23.094;2022-09-29T06:38:37;96369.09;;;19.78;74.40
22755;BME280;11544;42.020;23.094;2022-09-29T06:41:03;96369.63;;;19.60;74.52
22755;BME280;11544;42.020;23.094;2022-09-29T06:43:29;96359.50;;;19.86;73.75
22755;BME280;11544;42.020;23.094;2022-09-29T06:45:57;96353.16;;;20.39;69.83
22755;BME280;11544;42.020;23.094;2022-09-29T06:48:22;96365.25;;;20.32;71.23
22755;BME280;11544;42.020;23.094;2022-09-29T06:50:48;96367.28;;;20.59;70.06
22755;BME280;11544;42.020;23.094;2022-09-29T06:53:14;96364.94;;;20.66;68.84
22755;BME280;11544;42.020;23.094;2022-09-29T06:55:40;96360.06;;;20.21;69.34
22755;BME280;11544;42.020;23.094;2022-09-29T06:58:06;96368.59;;;20.34;71.71
22755;BME280;11544;42.020;23.094;2022-09-29T07:00:34;96369.28;;;20.86;71.40
22755;BME280;11544;42.020;23.094;2022-09-29T07:03:00;96365.94;;;20.94;68.45
22755;BME280;11544;42.020;23.094;2022-09-29T07:05:25;96362.19;;;20.37;68.81
22755;BME280;11544;42.020;23.094;2022-09-29T07:07:51;96356.84;;;21.06;66.82
22755;BME280;11544;42.020;23.094;2022-09-29T07:10:19;96354.31;;;21.53;63.35
22755;BME280;11544;42.020;23.094;2022-09-29T07:12:45;96353.75;;;21.30;65.82
22755;BME280;11544;42.020;23.094;2022-09-29T07:15:12;96351.41;;;20.79;66.45
22755;BME280;11544;42.020;23.094;2022-09-29T07:17:38;96348.19;;;20.56;68.42
22755;BME280;11544;42.020;23.094;2022-09-29T07:20:04;96348.56;;;20.32;68.17
22755;BME280;11544;42.020;23.094;2022-09-29T07:22:30;96348.09;;;21.82;65.09
22755;BME280;11544;42.020;23.094;2022-09-29T07:24:56;96355.56;;;22.61;61.95
22755;BME280;11544;42.020;23.094;2022-09-29T07:27:21;96357.56;;;22.77;61.64
22755;BME280;11544;42.020;23.094;2022-09-29T07:29:50;96366.16;;;23.07;61.00
22755;BME280;11544;42.020;23.094;2022-09-29T07:32:16;96370.56;;;23.16;61.10
22755;BME280;11544;42.020;23.094;2022-09-29T07:34:42;96374.03;;;23.17;60.51
22755;BME280;11544;42.020;23.094;2022-09-29T07:37:10;96377.41;;;22.91;60.60
22755;BME280;11544;42.020;23.094;2022-09-29T07:39:35;96384.66;;;23.35;60.06
22755;BME280;11544;42.020;23.094;2022-09-29T07:42:01;96375.47;;;23.29;58.81
22755;BME280;11544;42.020;23.094;2022-09-29T07:44:28;96377.06;;;23.22;59.33
22755;BME280;11544;42.020;23.094;2022-09-29T07:46:56;96389.63;;;22.84;60.55
22755;BME280;11544;42.020;23.094;2022-09-29T07:49:22;96385.81;;;23.32;58.88
22755;BME280;11544;42.020;23.094;2022-09-29T07:51:48;96383.31;;;23.57;57.82
22755;BME280;11544;42.020;23.094;2022-09-29T07:54:14;96366.53;;;24.00;57.33
22755;BME280;11544;42.020;23.094;2022-09-29T07:56:40;96365.66;;;24.00;58.04
22755;BME280;11544;42.020;23.094;2022-09-29T07:59:06;96364.75;;;23.83;56.02
22755;BME280;11544;42.020;23.094;2022-09-29T08:01:32;96360.84;;;24.38;54.48
22755;BME280;11544;42.020;23.094;2022-09-29T08:03:58;96360.66;;;24.74;53.81
22755;BME280;11544;42.020;23.094;2022-09-29T08:06:25;96366.66;;;24.84;54.14
22755;BME280;11544;42.020;23.094;2022-09-29T08:08:51;96370.16;;;24.34;52.93
22755;BME280;11544;42.020;23.094;2022-09-29T08:11:19;96372.75;;;23.39;55.98
22755;BME280;11544;42.020;23.094;2022-09-29T08:13:46;96370.41;;;24.48;56.25
22755;BME280;11544;42.020;23.094;2022-09-29T08:16:13;96374.41;;;24.53;54.18
22755;BME280;11544;42.020;23.094;2022-09-29T08:18:40;96372.63;;;24.35;53.86
22755;BME280;11544;42.020;23.094;2022-09-29T08:21:07;96358.78;;;24.23;52.43
22755;BME280;11544;42.020;23.094;2022-09-29T08:23:40;96349.41;;;24.03;52.91
22755;BME280;11544;42.020;23.094;2022-09-29T08:26:16;96355.31;;;23.88;53.42
22755;BME280;11544;42.020;23.094;2022-09-29T08:28:44;96357.28;;;23.42;53.54
22755;BME280;11544;42.020;23.094;2022-09-29T08:31:17;96356.81;;;23.65;53.94
22755;BME280;11544;42.020;23.094;2022-09-29T08:33:46;96359.59;;;23.37;53.85
22755;BME280;11544;42.020;23.094;2022-09-29T08:36:14;96357.63;;;23.21;53.87
22755;BME280;11544;42.020;23.094;2022-09-29T08:38:48;96358.41;;;23.32;53.30
22755;BME280;11544;42.020;23.094;2022-09-29T08:43:46;96354.50;;;23.96;53.07
22755;BME280;11544;42.020;23.094;2022-09-29T08:46:28;96359.50;;;23.73;53.31
22755;BME280;11544;42.020;23.094;2022-09-29T08:48:57;96381.22;;;23.60;53.39
22755;BME280;11544;42.020;23.094;2022-09-29T08:51:33;96370.88;;;23.83;52.10
22755;BME280;11544;42.020;23.094;2022-09-29T08:54:10;96375.97;;;24.37;50.75
22755;BME280;11544;42.020;23.094;2022-09-29T08:56:38;96373.69;;;24.93;50.54
22755;BME280;11544;42.020;23.094;2022-09-29T08:59:04;96361.41;;;25.41;49.12
22755;BME280;11544;42.020;23.094;2022-09-29T09:01:47;96356.56;;;25.20;49.30
22755;BME280;11544;42.020;23.094;2022-09-29T09:07:41;96366.69;;;25.08;45.55
22755;BME280;11544;42.020;23.094;2022-09-29T09:10:32;96375.44;;;24.68;46.19
22755;BME280;11544;42.020;23.094;2022-09-29T09:19:06;96379.41;;;25.31;46.03
22755;BME280;11544;42.020;23.094;2022-09-29T09:21:50;96362.69;;;25.12;45.57
22755;BME280;11544;42.020;23.094;2022-09-29T09:24:40;96363.03;;;25.75;45.67
22755;BME280;11544;42.020;23.094;2022-09-29T09:27:19;96371.59;;;26.26;44.29
22755;BME280;11544;42.020;23.094;2022-09-29T09:29:48;96367.00;;;25.95;43.09
22755;BME280;11544;42.020;23.094;2022-09-29T09:32:19;96362.81;;;26.57;41.49
22755;BME280;11544;42.020;23.094;2022-09-29T09:37:39;96358.66;;;26.54;40.19
22755;BME280;11544;42.020;23.094;2022-09-29T09:40:27;96340.66;;;26.40;40.97
22755;BME280;11544;42.020;23.094;2022-09-29T09:43:19;96345.63;;;27.06;40.96
22755;BME280;11544;42.020;23.094;2022-09-29T09:46:03;96341.91;;;26.60;38.70
22755;BME280;11544;42.020;23.094;2022-09-29T09:48:40;96336.38;;;26.93;39.60
22755;BME280;11544;42.020;23.094;2022-09-29T09:53:59;96329.97;;;26.40;38.89
22755;BME280;11544;42.020;23.094;2022-09-29T09:59:24;96337.19;;;27.17;38.21
22755;BME280;11544;42.020;23.094;2022-09-29T10:01:51;96332.31;;;27.43;37.30
22755;BME280;11544;42.020;23.094;2022-09-29T10:04:17;96324.31;;;27.73;37.26
22755;BME280;11544;42.020;23.094;2022-09-29T10:06:43;96320.03;;;28.02;36.37
22755;BME280;11544;42.020;23.094;2022-09-29T10:09:12;96324.41;;;27.65;37.67
22755;BME280;11544;42.020;23.094;2022-09-29T10:11:40;96307.50;;;28.54;36.18
22755;BME280;11544;42.020;23.094;2022-09-29T10:14:14;96317.22;;;28.40;36.79
22755;BME280;11544;42.020;23.094;2022-09-29T10:17:07;96312.44;;;28.35;37.56
22755;BME280;11544;42.020;23.094;2022-09-29T10:19:58;96322.72;;;28.02;37.22
22755;BME280;11544;42.020;23.094;2022-09-29T10:22:26;96316.91;;;27.83;36.26
22755;BME280;11544;42.020;23.094;2022-09-29T10:27:41;96321.69;;;27.12;38.20
22755;BME280;11544;42.020;23.094;2022-09-29T10:30:32;96312.63;;;27.74;36.53
22755;BME280;11544;42.020;23.094;2022-09-29T10:33:01;96304.19;;;27.77;36.64
22755;BME280;11544;42.020;23.094;2022-09-29T10:35:36;96315.19;;;27.67;37.00
22755;BME280;11544;42.020;23.094;2022-09-29T10:38:07;96314.50;;;27.13;37.21
22755;BME280;11544;42.020;23.094;2022-09-29T10:43:25;96314.19;;;26.85;36.98
22755;BME280;11544;42.020;23.094;2022-09-29T10:45:52;96320.16;;;26.32;39.00
22755;BME280;11544;42.020;23.094;2022-09-29T10:48:23;96319.09;;;26.02;39.34
22755;BME280;11544;42.020;23.094;2022-09-29T10:51:11;96310.28;;;25.85;39.42
22755;BME280;11544;42.020;23.094;2022-09-29T10:53:42;96322.38;;;26.60;38.78
22755;BME280;11544;42.020;23.094;2022-09-29T10:56:17;96319.00;;;26.66;37.83
22755;BME280;11544;42.020;23.094;2022-09-29T10:58:58;96315.56;;;26.18;37.97
22755;BME280;11544;42.020;23.094;2022-09-29T11:01:25;96318.22;;;26.49;38.23
22755;BME280;11544;42.020;23.094;2022-09-29T11:04:00;96311.69;;;26.52;37.66
22755;BME280;11544;42.020;23.094;2022-09-29T11:06:32;96305.16;;;26.63;37.42
22755;BME280;11544;42.020;23.094;2022-09-29T11:11:39;96306.34;;;26.52;37.17
22755;BME280;11544;42.020;23.094;2022-09-29T11:14:35;96302.25;;;26.41;37.70
22755;BME280;11544;42.020;23.094;2022-09-29T11:17:26;96306.31;;;25.89;38.38
22755;BME280;11544;42.020;23.094;2022-09-29T11:19:54;96303.19;;;26.17;38.46
22755;BME280;11544;42.020;23.094;2022-09-29T11:33:32;96304.94;;;25.93;38.90
22755;BME280;11544;42.020;23.094;2022-09-29T11:49:51;96290.41;;;26.04;39.19
22755;BME280;11544;42.020;23.094;2022-09-29T12:00:20;96282.50;;;25.55;40.54
22755;BME280;11544;42.020;23.094;2022-09-29T12:15:00;96287.72;;;25.32;41.14
22755;BME280;11544;42.020;23.094;2022-09-29T12:17:28;96296.09;;;25.21;41.37
22755;BME280;11544;42.020;23.094;2022-09-29T12:22:44;96286.88;;;25.15;40.99
22755;BME280;11544;42.020;23.094;2022-09-29T12:25:20;96298.22;;;25.01;41.07
22755;BME280;11544;42.020;23.094;2022-09-29T12:27:53;96293.88;;;25.08;41.67
22755;BME280;11544;42.020;23.094;2022-09-29T12:30:23;96298.38;;;25.07;41.09
22755;BME280;11544;42.020;23.094;2022-09-29T12:32:55;96296.06;;;25.04;41.30
22755;BME280;11544;42.020;23.094;2022-09-29T12:35:43;96294.53;;;25.10;41.05
22755;BME280;11544;42.020;23.094;2022-09-29T12:41:00;96299.03;;;25.01;41.43
22755;BME280;11544;42.020;23.094;2022-09-29T12:43:32;96297.06;;;25.11;40.81
22755;BME280;11544;42.020;23.094;2022-09-29T12:46:32;96298.88;;;25.11;40.95
22755;BME280;11544;42.020;23.094;2022-09-29T12:49:17;96296.72;;;25.06;40.73
22755;BME280;11544;42.020;23.094;2022-09-29T12:51:48;96300.75;;;25.19;41.19
22755;BME280;11544;42.020;23.094;2022-09-29T12:56:56;96289.81;;;25.69;39.74
22755;BME280;11544;42.020;23.094;2022-09-29T12:59:38;96285.66;;;25.67;39.78
22755;BME280;11544;42.020;23.094;2022-09-29T13:05:04;96285.81;;;26.21;39.85
22755;BME280;11544;42.020;23.094;2022-09-29T13:16:22;96288.22;;;25.35;40.94
22755;BME280;11544;42.020;23.094;2022-09-29T13:19:22;96289.06;;;25.44;41.11
22755;BME280;11544;42.020;23.094;2022-09-29T13:24:55;96295.69;;;25.56;39.87
22755;BME280;11544;42.020;23.094;2022-09-29T13:27:31;96287.16;;;25.69;40.05
22755;BME280;11544;42.020;23.094;2022-09-29T13:30:19;96290.16;;;25.58;40.93
22755;BME280;11544;42.020;23.094;2022-09-29T13:32:54;96286.03;;;25.39;40.85
22755;BME280;11544;42.020;23.094;2022-09-29T13:35:23;96290.38;;;25.40;40.89
22755;BME280;11544;42.020;23.094;2022-09-29T13:54:39;96298.88;;;25.44;41.63
22755;BME280;11544;42.020;23.094;2022-09-29T14:02:40;96302.75;;;25.33;42.29
22755;BME280;11544;42.020;23.094;2022-09-29T14:08:17;96294.19;;;25.13;42.46
22755;BME280;11544;42.020;23.094;2022-09-29T14:10:52;96283.53;;;25.13;42.87
22755;BME280;11544;42.020;23.094;2022-09-29T14:18:43;96287.06;;;24.97;43.38
22755;BME280;11544;42.020;23.094;2022-09-29T14:21:13;96291.41;;;24.90;43.75
22755;BME280;11544;42.020;23.094;2022-09-29T14:23:57;96291.53;;;24.80;44.36
22755;BME280;11544;42.020;23.094;2022-09-29T14:29:15;96289.72;;;24.81;44.39
22755;BME280;11544;42.020;23.094;2022-09-29T14:31:45;96298.38;;;24.75;44.76
22755;BME280;11544;42.020;23.094;2022-09-29T14:34:16;96290.38;;;24.75;44.76
22755;BME280;11544;42.020;23.094;2022-09-29T14:36:43;96298.69;;;24.63;45.19
22755;BME280;11544;42.020;23.094;2022-09-29T14:39:13;96306.00;;;24.61;45.30
22755;BME280;11544;42.020;23.094;2022-09-29T14:41:42;96300.50;;;24.55;45.77
22755;BME280;11544;42.020;23.094;2022-09-29T14:49:58;96303.25;;;24.37;45.87
22755;BME280;11544;42.020;23.094;2022-09-29T14:52:55;96301.97;;;24.49;46.20
22755;BME280;11544;42.020;23.094;2022-09-29T14:58:24;96305.31;;;24.51;45.82
22755;BME280;11544;42.020;23.094;2022-09-29T15:03:51;96299.00;;;24.60;45.40
22755;BME280;11544;42.020;23.094;2022-09-29T15:06:19;96290.19;;;24.68;45.35
22755;BME280;11544;42.020;23.094;2022-09-29T15:11:32;96307.38;;;24.74;46.00
22755;BME280;11544;42.020;23.094;2022-09-29T15:14:34;96313.16;;;24.61;46.83
22755;BME280;11544;42.020;23.094;2022-09-29T15:25:08;96326.47;;;24.18;46.98
22755;BME280;11544;42.020;23.094;2022-09-29T15:27:38;96329.97;;;24.11;47.31
22755;BME280;11544;42.020;23.094;2022-09-29T15:30:13;96331.75;;;24.02;47.75
22755;BME280;11544;42.020;23.094;2022-09-29T15:32:40;96324.91;;;23.99;47.70
22755;BME280;11544;42.020;23.094;2022-09-29T15:35:07;96336.03;;;23.95;47.92
22755;BME280;11544;42.020;23.094;2022-09-29T15:40:17;96339.91;;;24.00;47.96
22755;BME280;11544;42.020;23.094;2022-09-29T15:42:43;96340.66;;;23.84;48.41
22755;BME280;11544;42.020;23.094;2022-09-29T15:45:17;96348.84;;;23.91;48.37
22755;BME280;11544;42.020;23.094;2022-09-29T15:47:45;96349.94;;;23.80;48.77
22755;BME280;11544;42.020;23.094;2022-09-29T15:50:25;96346.94;;;23.83;48.53
22755;BME280;11544;42.020;23.094;2022-09-29T15:52:50;96343.09;;;23.78;49.13
22755;BME280;11544;42.020;23.094;2022-09-29T15:55:19;96345.06;;;23.76;49.46
22755;BME280;11544;42.020;23.094;2022-09-29T15:57:47;96344.25;;;23.75;49.35
22755;BME280;11544;42.020;23.094;2022-09-29T16:03:02;96349.31;;;23.68;49.93
22755;BME280;11544;42.020;23.094;2022-09-29T16:05:31;96355.19;;;23.72;49.94
22755;BME280;11544;42.020;23.094;2022-09-29T16:08:02;96358.81;;;23.71;50.27
22755;BME280;11544;42.020;23.094;2022-09-29T16:10:31;96356.97;;;23.72;50.21
22755;BME280;11544;42.020;23.094;2022-09-29T16:13:02;96360.34;;;23.74;49.82
22755;BME280;11544;42.020;23.094;2022-09-29T16:15:41;96366.44;;;23.66;50.44
22755;BME280;11544;42.020;23.094;2022-09-29T16:18:22;96376.34;;;23.56;50.83
22755;BME280;11544;42.020;23.094;2022-09-29T16:20:49;96383.31;;;23.57;50.55